createdAt,value
2022-11-16T00:00:04.288Z,28.25
2022-11-16T00:00:58.683Z,28.25
2022-11-16T00:01:58.718Z,28.20
2022-11-16T00:02:58.660Z,28.25
2022-11-16T00:03:58.622Z,29.06
2022-11-16T00:04:58.786Z,29.06
2022-11-16T00:05:58.591Z,28.25
2022-11-16T00:06:58.654Z,28.90
2022-11-16T00:07:58.634Z,28.09
2022-11-16T00:08:58.582Z,28.90
2022-11-16T00:09:58.546Z,28.79
2022-11-16T00:10:58.569Z,28.63
2022-11-16T00:11:58.539Z,28.63
2022-11-16T00:12:58.517Z,28.79
2022-11-16T00:13:58.497Z,29.06
2022-11-16T00:14:58.491Z,28.57
2022-11-16T00:15:58.518Z,29.00
2022-11-16T00:16:58.472Z,29.27
2022-11-16T00:17:58.456Z,29.27
2022-11-16T00:18:58.449Z,29.22
2022-11-16T00:19:58.413Z,28.95
2022-11-16T00:20:58.411Z,29.00
2022-11-16T00:21:58.420Z,29.17
2022-11-16T00:22:58.384Z,29.06
2022-11-16T00:23:58.355Z,28.74
2022-11-16T00:24:58.387Z,29.27
2022-11-16T00:25:58.339Z,29.22
2022-11-16T00:26:58.355Z,29.59
2022-11-16T00:27:58.325Z,29.11
2022-11-16T00:28:58.301Z,29.17
2022-11-16T00:29:58.337Z,29.11
2022-11-16T00:30:58.267Z,28.95
2022-11-16T00:31:58.305Z,29.17
2022-11-16T00:32:58.247Z,29.33
2022-11-16T00:33:58.232Z,29.22
2022-11-16T00:34:58.210Z,29.11
2022-11-16T00:35:58.267Z,29.22
2022-11-16T00:36:58.180Z,29.00
2022-11-16T00:37:58.190Z,29.22
2022-11-16T00:38:58.194Z,28.84
2022-11-16T00:39:58.164Z,28.95
2022-11-16T00:40:58.249Z,29.22
2022-11-16T00:41:58.134Z,29.43
2022-11-16T00:42:58.163Z,29.22
2022-11-16T00:43:58.121Z,29.06
2022-11-16T00:44:58.092Z,28.95
2022-11-16T00:45:58.106Z,28.52
2022-11-16T00:46:58.082Z,28.74
2022-11-16T00:48:00.621Z,29.38
2022-11-16T00:48:58.024Z,29.43
2022-11-16T00:49:58.042Z,28.84
2022-11-16T00:50:58.014Z,28.63
2022-11-16T00:51:58.035Z,28.84
2022-11-16T00:52:57.982Z,28.90
2022-11-16T00:53:57.980Z,28.52
2022-11-16T00:54:57.946Z,29.06
2022-11-16T00:55:57.992Z,29.11
2022-11-16T00:56:57.916Z,28.79
2022-11-16T00:57:57.957Z,28.79
2022-11-16T00:58:57.919Z,28.63
2022-11-16T00:59:57.910Z,29.00
2022-11-16T01:00:57.924Z,28.63
2022-11-16T01:01:57.876Z,29.06
2022-11-16T01:02:57.872Z,27.98
2022-11-16T01:03:57.853Z,28.74
2022-11-16T01:04:57.903Z,28.04
2022-11-16T01:05:57.825Z,28.84
2022-11-16T01:06:57.813Z,28.14
2022-11-16T01:07:57.811Z,28.09
2022-11-16T01:08:57.801Z,28.25
2022-11-16T01:09:57.766Z,28.14
2022-11-16T01:10:57.739Z,28.20
2022-11-16T01:11:57.796Z,28.09
2022-11-16T01:12:57.713Z,28.41
2022-11-16T01:13:57.750Z,28.25
2022-11-16T01:14:57.683Z,28.63
2022-11-16T01:15:57.679Z,28.36
2022-11-16T01:16:57.660Z,27.98
2022-11-16T01:17:57.653Z,28.47
2022-11-16T01:18:57.682Z,28.14
2022-11-16T01:19:57.674Z,28.09
2022-11-16T01:20:57.607Z,28.41
2022-11-16T01:21:57.632Z,27.93
2022-11-16T01:22:57.574Z,28.04
2022-11-16T01:23:57.588Z,28.09
2022-11-16T01:24:57.592Z,27.55
2022-11-16T01:25:57.558Z,27.98
2022-11-16T01:26:57.544Z,27.77
2022-11-16T01:27:57.533Z,28.20
2022-11-16T01:28:57.534Z,27.66
2022-11-16T01:29:57.499Z,27.66
2022-11-16T01:30:57.509Z,28.09
2022-11-16T01:31:57.480Z,27.88
2022-11-16T01:32:57.482Z,27.98
2022-11-16T01:33:57.448Z,27.98
2022-11-16T01:34:57.422Z,27.93
2022-11-16T01:35:57.547Z,27.88
2022-11-16T01:36:57.386Z,27.61
2022-11-16T01:37:57.393Z,27.29
2022-11-16T01:38:57.392Z,27.82
2022-11-16T01:39:57.364Z,27.77
2022-11-16T01:40:57.347Z,27.77
2022-11-16T01:41:57.462Z,27.39
2022-11-16T01:42:57.310Z,27.77
2022-11-16T01:43:57.318Z,27.71
2022-11-16T01:44:57.286Z,27.23
2022-11-16T01:45:57.290Z,27.55
2022-11-16T01:46:57.394Z,27.77
2022-11-16T01:47:57.313Z,27.50
2022-11-16T01:48:57.246Z,27.34
2022-11-16T01:49:57.230Z,27.50
2022-11-16T01:50:57.227Z,27.66
2022-11-16T01:51:57.290Z,27.45
2022-11-16T01:52:57.214Z,27.23
2022-11-16T01:53:57.252Z,27.12
2022-11-16T01:54:57.148Z,27.34
2022-11-16T01:55:57.160Z,27.61
2022-11-16T01:56:57.187Z,27.23
2022-11-16T01:57:57.155Z,27.45
2022-11-16T01:58:57.119Z,27.12
2022-11-16T01:59:57.095Z,27.55
2022-11-16T02:00:57.135Z,27.61
2022-11-16T02:01:57.199Z,27.39
2022-11-16T02:02:57.082Z,27.45
2022-11-16T02:03:57.098Z,26.59
2022-11-16T02:04:57.036Z,27.71
2022-11-16T02:05:57.054Z,27.39
2022-11-16T02:06:57.137Z,27.50
2022-11-16T02:07:56.979Z,27.39
2022-11-16T02:08:57.042Z,27.66
2022-11-16T02:09:56.952Z,27.55
2022-11-16T02:10:56.951Z,27.29
2022-11-16T02:11:56.923Z,27.55
2022-11-16T02:12:56.991Z,26.80
2022-11-16T02:13:56.927Z,27.50
2022-11-16T02:14:56.918Z,27.12
2022-11-16T02:15:56.971Z,27.18
2022-11-16T02:16:56.877Z,27.45
2022-11-16T02:17:56.858Z,27.39
2022-11-16T02:18:56.844Z,27.34
2022-11-16T02:19:57.017Z,27.61
2022-11-16T02:20:56.832Z,27.39
2022-11-16T02:21:56.811Z,27.61
2022-11-16T02:22:56.804Z,27.55
2022-11-16T02:23:56.929Z,27.45
2022-11-16T02:24:56.792Z,26.91
2022-11-16T02:25:56.794Z,27.23
2022-11-16T02:26:56.783Z,27.50
2022-11-16T02:27:56.742Z,27.61
2022-11-16T02:28:56.713Z,27.55
2022-11-16T02:29:56.730Z,27.45
2022-11-16T02:30:56.721Z,27.29
2022-11-16T02:31:56.659Z,26.43
2022-11-16T02:32:56.672Z,27.29
2022-11-16T02:33:56.631Z,27.23
2022-11-16T02:34:56.635Z,26.91
2022-11-16T02:35:56.620Z,27.71
2022-11-16T02:36:56.717Z,27.02
2022-11-16T02:37:56.590Z,27.12
2022-11-16T02:38:56.582Z,27.55
2022-11-16T02:39:56.561Z,27.02
2022-11-16T02:40:56.595Z,26.96
2022-11-16T02:41:56.558Z,27.34
2022-11-16T02:42:56.531Z,26.48
2022-11-16T02:43:56.533Z,27.66
2022-11-16T02:44:56.495Z,27.07
2022-11-16T02:45:56.585Z,27.12
2022-11-16T02:46:56.478Z,27.34
2022-11-16T02:47:56.535Z,27.07
2022-11-16T02:48:56.451Z,26.80
2022-11-16T02:49:56.425Z,27.23
2022-11-16T02:50:56.454Z,27.18
2022-11-16T02:51:56.389Z,27.61
2022-11-16T02:52:56.430Z,27.50
2022-11-16T02:53:56.429Z,27.50
2022-11-16T02:54:56.379Z,27.93
2022-11-16T02:55:56.353Z,27.93
2022-11-16T02:56:56.338Z,27.98
2022-11-16T02:57:56.316Z,27.61
2022-11-16T02:58:56.344Z,27.77
2022-11-16T02:59:56.292Z,27.77
2022-11-16T03:00:56.357Z,27.77
2022-11-16T03:01:56.291Z,27.71
2022-11-16T03:02:56.263Z,27.77
2022-11-16T03:03:56.308Z,28.20
2022-11-16T03:04:56.272Z,28.04
2022-11-16T03:05:56.283Z,28.31
2022-11-16T03:06:56.281Z,28.04
2022-11-16T03:07:56.260Z,28.14
2022-11-16T03:08:56.198Z,27.77
2022-11-16T03:09:56.211Z,27.50
2022-11-16T03:10:56.162Z,28.09
2022-11-16T03:11:56.143Z,27.77
2022-11-16T03:12:56.185Z,27.82
2022-11-16T03:13:56.152Z,27.66
2022-11-16T03:14:56.279Z,27.88
2022-11-16T03:15:56.159Z,27.93
2022-11-16T03:16:56.097Z,27.66
2022-11-16T03:17:56.064Z,27.66
2022-11-16T03:18:56.088Z,27.66
2022-11-16T03:19:56.036Z,27.82
2022-11-16T03:20:56.056Z,27.93
2022-11-16T03:21:56.027Z,27.71
2022-11-16T03:22:55.996Z,28.14
2022-11-16T03:23:55.980Z,27.93
2022-11-16T03:24:56.006Z,27.55
2022-11-16T03:25:55.982Z,28.04
2022-11-16T03:26:55.957Z,27.88
2022-11-16T03:27:55.924Z,27.77
2022-11-16T03:28:55.924Z,28.04
2022-11-16T03:29:55.894Z,27.98
2022-11-16T03:30:55.913Z,27.82
2022-11-16T03:31:55.895Z,27.66
2022-11-16T03:32:55.863Z,27.18
2022-11-16T03:33:55.838Z,27.71
2022-11-16T03:34:55.929Z,27.61
2022-11-16T03:35:55.825Z,27.50
2022-11-16T03:36:55.840Z,27.39
2022-11-16T03:37:55.806Z,27.61
2022-11-16T03:38:55.788Z,27.50
2022-11-16T03:39:55.771Z,27.34
2022-11-16T03:40:55.803Z,27.45
2022-11-16T03:41:55.754Z,27.50
2022-11-16T03:42:55.788Z,27.66
2022-11-16T03:43:55.713Z,27.50
2022-11-16T03:44:55.736Z,27.55
2022-11-16T03:45:55.693Z,27.71
2022-11-16T03:46:55.679Z,27.34
2022-11-16T03:47:55.698Z,27.61
2022-11-16T03:48:55.661Z,27.12
2022-11-16T03:49:55.648Z,27.45
2022-11-16T03:50:55.632Z,27.61
2022-11-16T03:51:55.624Z,27.18
2022-11-16T03:52:55.611Z,27.29
2022-11-16T03:53:55.599Z,26.80
2022-11-16T03:54:55.634Z,26.96
2022-11-16T03:55:55.563Z,27.07
2022-11-16T03:56:55.552Z,26.75
2022-11-16T03:57:55.625Z,26.69
2022-11-16T03:58:55.552Z,26.59
2022-11-16T03:59:55.621Z,26.75
2022-11-16T04:00:55.544Z,27.18
2022-11-16T04:01:55.473Z,26.64
2022-11-16T04:02:55.591Z,26.64
2022-11-16T04:03:55.448Z,26.64
2022-11-16T04:04:55.483Z,26.86
2022-11-16T04:05:55.521Z,26.80
2022-11-16T04:06:55.461Z,27.02
2022-11-16T04:07:55.416Z,27.07
2022-11-16T04:08:55.410Z,26.80
2022-11-16T04:09:55.387Z,26.96
2022-11-16T04:10:55.427Z,26.59
2022-11-16T04:11:55.369Z,26.53
2022-11-16T04:12:55.342Z,27.02
2022-11-16T04:13:55.311Z,26.53
2022-11-16T04:14:55.319Z,26.96
2022-11-16T04:15:55.343Z,26.59
2022-11-16T04:16:55.283Z,26.48
2022-11-16T04:17:55.369Z,26.32
2022-11-16T04:18:55.285Z,26.32
2022-11-16T04:19:58.085Z,26.43
2022-11-16T04:20:55.263Z,26.21
2022-11-16T04:21:55.213Z,26.32
2022-11-16T04:22:55.271Z,26.53
2022-11-16T04:23:55.179Z,26.43
2022-11-16T04:24:55.211Z,26.59
2022-11-16T04:25:55.154Z,26.26
2022-11-16T04:26:55.204Z,26.48
2022-11-16T04:27:55.139Z,26.43
2022-11-16T04:28:55.144Z,26.37
2022-11-16T04:29:55.104Z,26.26
2022-11-16T04:30:55.099Z,26.64
2022-11-16T04:31:55.254Z,25.89
2022-11-16T04:32:55.081Z,26.16
2022-11-16T04:33:55.052Z,25.78
2022-11-16T04:34:55.091Z,26.43
2022-11-16T04:35:55.034Z,26.32
2022-11-16T04:36:55.027Z,25.94
2022-11-16T04:37:55.053Z,26.53
2022-11-16T04:38:55.013Z,26.43
2022-11-16T04:39:54.993Z,26.32
2022-11-16T04:40:54.970Z,25.89
2022-11-16T04:41:55.038Z,26.16
2022-11-16T04:42:55.002Z,26.16
2022-11-16T04:43:54.929Z,26.43
2022-11-16T04:44:54.915Z,25.89
2022-11-16T04:45:54.922Z,25.94
2022-11-16T04:46:54.885Z,26.26
2022-11-16T04:47:54.866Z,26.05
2022-11-16T04:48:55.007Z,26.10
2022-11-16T04:49:54.845Z,25.94
2022-11-16T04:50:54.867Z,26.48
2022-11-16T04:51:54.815Z,26.05
2022-11-16T04:52:54.898Z,26.00
2022-11-16T04:53:54.822Z,26.10
2022-11-16T04:54:54.824Z,26.16
2022-11-16T04:55:59.562Z,25.89
2022-11-16T04:56:54.767Z,26.05
2022-11-16T04:57:54.781Z,25.89
2022-11-16T04:58:54.750Z,26.10
2022-11-16T04:59:54.726Z,26.10
2022-11-16T05:00:54.778Z,25.94
2022-11-16T05:01:54.676Z,26.00
2022-11-16T05:03:00.818Z,25.94
2022-11-16T05:03:54.664Z,25.89
2022-11-16T05:04:54.708Z,25.46
2022-11-16T05:05:54.632Z,26.05
2022-11-16T05:06:54.706Z,26.05
2022-11-16T05:07:54.616Z,26.26
2022-11-16T05:08:54.669Z,25.94
2022-11-16T05:09:54.577Z,25.89
2022-11-16T05:10:54.624Z,26.21
2022-11-16T05:11:54.595Z,25.51
2022-11-16T05:12:54.555Z,25.30
2022-11-16T05:13:54.524Z,25.89
2022-11-16T05:14:54.564Z,25.46
2022-11-16T05:15:54.522Z,26.32
2022-11-16T05:16:54.500Z,25.35
2022-11-16T05:17:54.468Z,26.10
2022-11-16T05:18:54.507Z,25.46
2022-11-16T05:19:54.438Z,25.51
2022-11-16T05:20:54.447Z,25.94
2022-11-16T05:21:54.443Z,26.16
2022-11-16T05:22:54.430Z,25.30
2022-11-16T05:23:54.411Z,26.16
2022-11-16T05:24:54.397Z,25.78
2022-11-16T05:25:54.398Z,25.41
2022-11-16T05:26:54.392Z,26.05
2022-11-16T05:27:54.343Z,25.30
2022-11-16T05:28:54.337Z,25.41
2022-11-16T05:29:54.309Z,25.51
2022-11-16T05:30:54.321Z,25.57
2022-11-16T05:31:54.288Z,25.41
2022-11-16T05:32:54.312Z,25.67
2022-11-16T05:33:54.267Z,25.35
2022-11-16T05:34:54.257Z,25.41
2022-11-16T05:35:54.249Z,25.78
2022-11-16T05:36:54.247Z,25.62
2022-11-16T05:37:54.286Z,25.57
2022-11-16T05:38:56.355Z,25.73
2022-11-16T05:39:54.180Z,25.67
2022-11-16T05:40:54.184Z,25.73
2022-11-16T05:41:54.151Z,25.67
2022-11-16T05:42:54.160Z,25.57
2022-11-16T05:43:54.201Z,25.46
2022-11-16T05:44:54.126Z,25.46
2022-11-16T05:45:54.110Z,25.62
2022-11-16T05:46:54.150Z,25.67
2022-11-16T05:47:54.069Z,25.24
2022-11-16T05:48:54.102Z,25.51
2022-11-16T05:49:54.061Z,25.46
2022-11-16T05:50:54.046Z,25.35
2022-11-16T05:51:54.029Z,25.73
2022-11-16T05:52:54.024Z,25.51
2022-11-16T05:53:53.994Z,25.30
2022-11-16T05:54:54.022Z,25.51
2022-11-16T05:55:54.022Z,25.35
2022-11-16T05:56:54.064Z,25.78
2022-11-16T05:57:53.955Z,25.51
2022-11-16T05:58:53.970Z,25.57
2022-11-16T05:59:53.942Z,25.73
2022-11-16T06:00:53.969Z,25.46
2022-11-16T06:01:53.898Z,25.30
2022-11-16T06:02:53.974Z,25.35
2022-11-16T06:03:53.859Z,25.62
2022-11-16T06:04:53.946Z,25.41
2022-11-16T06:05:53.862Z,25.46
2022-11-16T06:06:53.904Z,25.41
2022-11-16T06:07:53.804Z,25.24
2022-11-16T06:08:53.909Z,25.57
2022-11-16T06:09:53.796Z,25.57
2022-11-16T06:10:53.818Z,25.30
2022-11-16T06:11:53.770Z,25.35
2022-11-16T06:12:53.754Z,25.30
2022-11-16T06:13:53.686Z,24.76
2022-11-16T06:14:53.802Z,25.51
2022-11-16T06:15:53.682Z,25.35
2022-11-16T06:16:53.676Z,25.03
2022-11-16T06:17:53.638Z,24.98
2022-11-16T06:18:53.620Z,25.03
2022-11-16T06:19:53.609Z,25.03
2022-11-16T06:20:53.588Z,24.92
2022-11-16T06:21:53.688Z,25.78
2022-11-16T06:22:53.569Z,24.98
2022-11-16T06:23:53.567Z,25.30
2022-11-16T06:24:53.661Z,25.51
2022-11-16T06:25:53.534Z,25.03
2022-11-16T06:26:53.590Z,25.19
2022-11-16T06:27:53.540Z,24.81
2022-11-16T06:28:53.482Z,24.92
2022-11-16T06:29:53.481Z,24.87
2022-11-16T06:30:53.525Z,24.92
2022-11-16T06:31:53.464Z,24.92
2022-11-16T06:32:53.480Z,24.92
2022-11-16T06:33:53.480Z,25.08
2022-11-16T06:34:53.405Z,25.46
2022-11-16T06:35:53.400Z,25.08
2022-11-16T06:36:53.519Z,25.03
2022-11-16T06:37:53.403Z,25.03
2022-11-16T06:38:53.376Z,25.14
2022-11-16T06:39:53.374Z,25.19
2022-11-16T06:40:53.321Z,24.81
2022-11-16T06:41:53.333Z,24.98
2022-11-16T06:42:53.344Z,25.30
2022-11-16T06:43:53.334Z,25.24
2022-11-16T06:44:53.379Z,25.35
2022-11-16T06:45:53.266Z,25.24
2022-11-16T06:46:53.265Z,25.03
2022-11-16T06:47:53.250Z,24.81
2022-11-16T06:48:53.236Z,25.19
2022-11-16T06:49:53.283Z,25.30
2022-11-16T06:50:53.207Z,25.24
2022-11-16T06:51:53.209Z,24.33
2022-11-16T06:52:53.167Z,24.60
2022-11-16T06:53:53.161Z,24.71
2022-11-16T06:54:53.174Z,24.98
2022-11-16T06:55:53.148Z,25.14
2022-11-16T06:56:53.128Z,25.24
2022-11-16T06:57:53.123Z,24.98
2022-11-16T06:58:53.752Z,24.71
2022-11-16T06:59:53.215Z,25.14
2022-11-16T07:00:53.124Z,24.81
2022-11-16T07:01:53.160Z,25.08
2022-11-16T07:02:53.033Z,25.62
2022-11-16T07:03:53.056Z,25.24
2022-11-16T07:04:53.093Z,25.03
2022-11-16T07:05:53.034Z,24.49
2022-11-16T07:06:53.045Z,24.71
2022-11-16T07:07:52.995Z,24.98
2022-11-16T07:08:52.956Z,25.89
2022-11-16T07:09:52.958Z,25.24
2022-11-16T07:10:52.960Z,24.49
2022-11-16T07:11:52.977Z,25.24
2022-11-16T07:12:52.905Z,24.49
2022-11-16T07:13:52.896Z,25.08
2022-11-16T07:14:52.928Z,24.92
2022-11-16T07:15:52.879Z,24.55
2022-11-16T07:16:59.067Z,24.81
2022-11-16T07:17:52.873Z,25.35
2022-11-16T07:18:52.848Z,24.44
2022-11-16T07:19:52.825Z,24.76
2022-11-16T07:20:52.829Z,24.55
2022-11-16T07:21:52.796Z,24.44
2022-11-16T07:22:52.796Z,24.98
2022-11-16T07:23:52.781Z,24.49
2022-11-16T07:24:52.781Z,24.71
2022-11-16T07:25:52.869Z,24.87
2022-11-16T07:26:52.754Z,24.55
2022-11-16T07:27:52.772Z,24.71
2022-11-16T07:28:52.698Z,24.65
2022-11-16T07:29:52.698Z,24.87
2022-11-16T07:30:52.664Z,24.81
2022-11-16T07:31:52.672Z,24.87
2022-11-16T07:32:52.707Z,24.92
2022-11-16T07:33:52.664Z,24.60
2022-11-16T07:34:52.617Z,24.92
2022-11-16T07:35:52.651Z,24.71
2022-11-16T07:36:52.608Z,24.71
2022-11-16T07:37:52.584Z,24.98
2022-11-16T07:38:52.642Z,24.87
2022-11-16T07:39:52.564Z,24.44
2022-11-16T07:40:52.533Z,24.55
2022-11-16T07:41:52.541Z,24.44
2022-11-16T07:42:52.515Z,24.81
2022-11-16T07:43:53.294Z,24.65
2022-11-16T07:44:52.605Z,24.55
2022-11-16T07:45:52.508Z,24.81
2022-11-16T07:46:52.519Z,24.81
2022-11-16T07:47:52.509Z,24.71
2022-11-16T07:48:52.484Z,24.55
2022-11-16T07:49:52.467Z,24.49
2022-11-16T07:50:52.413Z,24.22
2022-11-16T07:51:52.407Z,24.76
2022-11-16T07:52:52.377Z,23.74
2022-11-16T07:53:52.392Z,24.65
2022-11-16T07:54:52.348Z,24.81
2022-11-16T07:55:52.385Z,24.81
2022-11-16T07:56:52.341Z,24.28
2022-11-16T07:57:53.564Z,24.06
2022-11-16T07:58:52.299Z,24.92
2022-11-16T07:59:52.322Z,24.87
2022-11-16T08:00:52.320Z,24.28
2022-11-16T08:01:52.328Z,24.81
2022-11-16T08:02:52.266Z,24.06
2022-11-16T08:03:52.244Z,24.71
2022-11-16T08:04:52.231Z,24.01
2022-11-16T08:05:52.237Z,24.44
2022-11-16T08:06:52.298Z,24.55
2022-11-16T08:07:52.191Z,24.76
2022-11-16T08:08:57.826Z,24.12
2022-11-16T08:09:52.359Z,24.65
2022-11-16T08:10:52.141Z,24.55
2022-11-16T08:11:52.182Z,24.28
2022-11-16T08:12:52.117Z,24.06
2022-11-16T08:13:52.121Z,23.85
2022-11-16T08:14:52.099Z,24.06
2022-11-16T08:15:52.089Z,24.06
2022-11-16T08:16:52.066Z,24.76
2022-11-16T08:17:52.096Z,24.06
2022-11-16T08:18:52.074Z,24.55
2022-11-16T08:19:52.045Z,24.92
2022-11-16T08:20:52.012Z,24.55
2022-11-16T08:21:52.008Z,23.96
2022-11-16T08:22:52.141Z,24.01
2022-11-16T08:23:57.827Z,24.44
2022-11-16T08:24:51.996Z,23.90
2022-11-16T08:25:51.961Z,24.28
2022-11-16T08:26:51.946Z,24.12
2022-11-16T08:27:51.949Z,24.22
2022-11-16T08:28:51.946Z,23.90
2022-11-16T08:29:51.940Z,24.22
2022-11-16T08:30:53.875Z,24.17
2022-11-16T08:31:51.884Z,24.06
2022-11-16T08:32:51.910Z,24.49
2022-11-16T08:33:51.888Z,24.22
2022-11-16T08:34:51.834Z,23.96
2022-11-16T08:35:51.824Z,24.33
2022-11-16T08:36:51.811Z,23.90
2022-11-16T08:37:51.799Z,23.85
2022-11-16T08:38:51.772Z,24.17
2022-11-16T08:39:51.812Z,24.06
2022-11-16T08:40:51.752Z,24.06
2022-11-16T08:41:51.758Z,24.12
2022-11-16T08:42:51.733Z,24.28
2022-11-16T08:43:51.730Z,24.17
2022-11-16T08:44:51.727Z,24.22
2022-11-16T08:45:51.696Z,23.96
2022-11-16T08:46:51.688Z,24.06
2022-11-16T08:47:53.679Z,24.12
2022-11-16T08:48:51.652Z,23.96
2022-11-16T08:49:51.673Z,24.22
2022-11-16T08:51:15.879Z,23.58
2022-11-16T08:51:51.623Z,23.85
2022-11-16T08:52:51.588Z,24.22
2022-11-16T08:53:51.613Z,24.12
2022-11-16T08:54:51.560Z,24.06
2022-11-16T08:55:51.598Z,23.79
2022-11-16T08:56:51.564Z,24.17
2022-11-16T08:57:51.543Z,23.85
2022-11-16T08:58:56.777Z,23.79
2022-11-16T08:59:51.557Z,24.17
2022-11-16T09:00:51.486Z,24.06
2022-11-16T09:01:51.593Z,24.01
2022-11-16T09:02:51.484Z,24.38
2022-11-16T09:03:51.454Z,23.96
2022-11-16T09:04:51.444Z,23.96
2022-11-16T09:05:51.465Z,24.28
2022-11-16T09:06:51.474Z,24.22
2022-11-16T09:07:51.412Z,23.96
2022-11-16T09:08:51.435Z,23.53
2022-11-16T09:09:51.386Z,23.69
2022-11-16T09:10:51.351Z,24.33
2022-11-16T09:11:51.376Z,23.63
2022-11-16T09:12:51.358Z,24.01
2022-11-16T09:13:51.340Z,23.96
2022-11-16T09:14:51.321Z,23.58
2022-11-16T09:15:51.300Z,23.85
2022-11-16T09:16:51.279Z,24.12
2022-11-16T09:17:51.320Z,24.17
2022-11-16T09:18:51.249Z,23.58
2022-11-16T09:19:51.250Z,24.22
2022-11-16T09:20:51.220Z,24.17
2022-11-16T09:21:51.253Z,23.53
2022-11-16T09:22:51.201Z,23.74
2022-11-16T09:23:51.223Z,23.79
2022-11-16T09:24:51.201Z,23.63
2022-11-16T09:25:51.175Z,23.58
2022-11-16T09:26:51.141Z,23.85
2022-11-16T09:27:51.164Z,24.28
2022-11-16T09:29:00.274Z,24.17
2022-11-16T09:29:51.117Z,24.12
2022-11-16T09:30:51.104Z,23.79
2022-11-16T09:31:51.087Z,23.90
2022-11-16T09:32:51.061Z,24.22
2022-11-16T09:33:51.080Z,23.47
2022-11-16T09:34:51.066Z,24.12
2022-11-16T09:35:51.044Z,24.17
2022-11-16T09:36:51.010Z,23.53
2022-11-16T09:37:51.064Z,24.17
2022-11-16T09:39:51.074Z,23.69
2022-11-16T09:40:51.006Z,23.63
2022-11-16T09:41:50.966Z,23.96
2022-11-16T09:42:50.926Z,23.79
2022-11-16T09:43:50.960Z,23.53
2022-11-16T09:44:50.903Z,23.90
2022-11-16T09:45:50.938Z,23.53
2022-11-16T09:46:50.921Z,23.79
2022-11-16T09:47:50.884Z,23.74
2022-11-16T09:48:50.857Z,23.69
2022-11-16T09:49:50.871Z,23.42
2022-11-16T09:50:50.862Z,23.90
2022-11-16T09:51:50.831Z,23.69
2022-11-16T09:52:50.833Z,23.69
2022-11-16T09:53:50.807Z,23.74
2022-11-16T09:54:50.768Z,23.85
2022-11-16T09:55:50.848Z,24.01
2022-11-16T09:56:50.753Z,24.01
2022-11-16T09:57:50.754Z,23.74
2022-11-16T09:58:50.731Z,23.42
2022-11-16T09:59:50.721Z,23.96
2022-11-16T10:00:50.741Z,23.90
2022-11-16T10:01:50.789Z,23.53
2022-11-16T10:02:50.693Z,23.74
2022-11-16T10:03:50.689Z,23.69
2022-11-16T10:04:56.704Z,23.47
2022-11-16T10:05:50.640Z,23.90
2022-11-16T10:06:50.735Z,23.85
2022-11-16T10:07:50.609Z,23.79
2022-11-16T10:08:50.582Z,23.63
2022-11-16T10:09:50.590Z,23.79
2022-11-16T10:10:50.553Z,23.53
2022-11-16T10:11:50.558Z,23.58
2022-11-16T10:12:50.568Z,23.63
2022-11-16T10:13:50.528Z,23.47
2022-11-16T10:14:50.504Z,23.85
2022-11-16T10:15:50.512Z,23.85
2022-11-16T10:16:50.519Z,23.74
2022-11-16T10:17:50.504Z,23.47
2022-11-16T10:18:50.476Z,23.31
2022-11-16T10:19:50.443Z,23.79
2022-11-16T10:20:50.444Z,23.53
2022-11-16T10:21:50.425Z,23.79
2022-11-16T10:22:50.405Z,23.79
2022-11-16T10:23:50.452Z,23.31
2022-11-16T10:24:50.376Z,23.85
2022-11-16T10:25:50.367Z,23.42
2022-11-16T10:26:50.360Z,23.63
2022-11-16T10:27:50.390Z,23.74
2022-11-16T10:28:50.361Z,23.31
2022-11-16T10:29:50.331Z,23.15
2022-11-16T10:30:50.310Z,23.69
2022-11-16T10:31:50.270Z,23.79
2022-11-16T10:32:50.275Z,24.17
2022-11-16T10:33:50.263Z,23.58
2022-11-16T10:34:50.443Z,23.47
2022-11-16T10:35:50.218Z,23.47
2022-11-16T10:36:50.218Z,23.69
2022-11-16T10:37:50.194Z,23.79
2022-11-16T10:38:50.195Z,23.10
2022-11-16T10:39:50.209Z,23.69
2022-11-16T10:40:50.169Z,23.10
2022-11-16T10:41:50.161Z,23.47
2022-11-16T10:42:50.168Z,23.42
2022-11-16T10:43:50.118Z,23.74
2022-11-16T10:44:50.117Z,23.53
2022-11-16T10:45:50.134Z,23.26
2022-11-16T10:46:50.088Z,23.63
2022-11-16T10:47:50.061Z,23.42
2022-11-16T10:48:50.078Z,23.10
2022-11-16T10:49:50.033Z,23.26
2022-11-16T10:50:50.084Z,23.42
2022-11-16T10:51:50.064Z,23.42
2022-11-16T10:52:50.007Z,23.36
2022-11-16T10:53:49.986Z,23.85
2022-11-16T10:54:50.030Z,23.36
2022-11-16T10:55:49.961Z,23.69
2022-11-16T10:56:49.998Z,23.04
2022-11-16T10:57:49.961Z,23.20
2022-11-16T10:58:49.925Z,23.36
2022-11-16T10:59:49.907Z,23.53
2022-11-16T11:00:49.933Z,23.85
2022-11-16T11:01:49.933Z,23.15
2022-11-16T11:02:49.878Z,23.10
2022-11-16T11:03:49.857Z,23.53
2022-11-16T11:04:49.857Z,23.20
2022-11-16T11:05:49.839Z,23.53
2022-11-16T11:06:49.967Z,23.47
2022-11-16T11:07:49.827Z,23.36
2022-11-16T11:08:49.792Z,23.31
2022-11-16T11:09:49.789Z,23.31
2022-11-16T11:10:49.769Z,23.63
2022-11-16T11:11:49.740Z,23.85
2022-11-16T11:12:49.795Z,23.31
2022-11-16T11:13:49.719Z,23.10
2022-11-16T11:14:49.721Z,23.58
2022-11-16T11:15:49.684Z,23.69
2022-11-16T11:16:49.724Z,23.36
2022-11-16T11:17:49.667Z,23.26
2022-11-16T11:18:49.692Z,23.26
2022-11-16T11:19:49.690Z,23.42
2022-11-16T11:20:49.638Z,23.10
2022-11-16T11:21:49.605Z,23.47
2022-11-16T11:22:49.605Z,23.20
2022-11-16T11:23:49.741Z,23.10
2022-11-16T11:24:49.629Z,23.42
2022-11-16T11:25:49.575Z,23.85
2022-11-16T11:26:49.551Z,23.26
2022-11-16T11:27:49.614Z,23.47
2022-11-16T11:28:49.547Z,23.47
2022-11-16T11:29:49.638Z,23.36
2022-11-16T11:30:49.525Z,23.42
2022-11-16T11:31:49.514Z,23.20
2022-11-16T11:32:49.475Z,23.36
2022-11-16T11:33:49.469Z,23.26
2022-11-16T11:34:49.479Z,23.42
2022-11-16T11:35:49.415Z,23.20
2022-11-16T11:36:49.663Z,23.36
2022-11-16T11:37:49.390Z,23.58
2022-11-16T11:38:49.441Z,23.31
2022-11-16T11:39:49.388Z,23.90
2022-11-16T11:40:49.416Z,22.61
2022-11-16T11:41:49.341Z,23.15
2022-11-16T11:42:49.333Z,23.31
2022-11-16T11:43:49.340Z,23.31
2022-11-16T11:44:49.315Z,23.53
2022-11-16T11:45:49.319Z,23.47
2022-11-16T11:47:35.108Z,23.47
2022-11-16T11:48:04.728Z,23.26
2022-11-16T11:48:49.268Z,23.42
2022-11-16T11:49:49.276Z,23.36
2022-11-16T11:50:49.236Z,23.26
2022-11-16T11:51:49.231Z,23.42
2022-11-16T11:52:49.207Z,23.47
2022-11-16T11:53:49.182Z,23.42
2022-11-16T11:54:49.183Z,23.31
2022-11-16T11:55:49.154Z,22.88
2022-11-16T11:56:49.209Z,23.47
2022-11-16T11:57:49.128Z,23.15
2022-11-16T11:58:49.122Z,23.63
2022-11-16T11:59:49.094Z,22.83
2022-11-16T12:00:49.168Z,22.61
2022-11-16T12:01:49.069Z,23.42
2022-11-16T12:02:49.162Z,23.47
2022-11-16T12:03:49.077Z,23.15
2022-11-16T12:04:49.043Z,23.42
2022-11-16T12:05:49.016Z,23.74
2022-11-16T12:06:49.112Z,23.36
2022-11-16T12:07:49.037Z,23.63
2022-11-16T12:08:48.985Z,23.31
2022-11-16T12:09:48.986Z,23.04
2022-11-16T12:10:48.963Z,22.50
2022-11-16T12:11:48.940Z,22.72
2022-11-16T12:12:48.960Z,22.88
2022-11-16T12:13:48.943Z,23.42
2022-11-16T12:14:48.909Z,23.31
2022-11-16T12:15:48.896Z,22.88
2022-11-16T12:16:48.899Z,22.88
2022-11-16T12:17:48.868Z,23.15
2022-11-16T12:18:48.891Z,23.58
2022-11-16T12:19:48.848Z,23.15
2022-11-16T12:20:48.871Z,23.36
2022-11-16T12:21:48.821Z,23.42
2022-11-16T12:22:48.811Z,22.83
2022-11-16T12:23:48.774Z,23.31
2022-11-16T12:24:48.802Z,22.72
2022-11-16T12:25:48.750Z,23.26
2022-11-16T12:26:48.749Z,23.53
2022-11-16T12:27:48.725Z,22.50
2022-11-16T12:28:51.270Z,23.20
2022-11-16T12:29:48.740Z,22.93
2022-11-16T12:30:48.691Z,23.42
2022-11-16T12:31:48.718Z,23.26
2022-11-16T12:32:48.676Z,23.10
2022-11-16T12:33:48.647Z,23.53
2022-11-16T12:34:48.677Z,23.42
2022-11-16T12:35:48.841Z,23.31
2022-11-16T12:36:48.617Z,23.53
2022-11-16T12:37:48.590Z,23.31
2022-11-16T12:38:48.598Z,23.36
2022-11-16T12:39:48.563Z,22.77
2022-11-16T12:40:48.591Z,23.31
2022-11-16T12:41:48.544Z,22.83
2022-11-16T12:42:48.541Z,22.67
2022-11-16T12:43:48.508Z,22.61
2022-11-16T12:44:48.559Z,23.36
2022-11-16T12:45:48.486Z,23.53
2022-11-16T12:46:48.588Z,23.15
2022-11-16T12:47:48.463Z,23.26
2022-11-16T12:48:48.489Z,23.15
2022-11-16T12:49:48.427Z,22.83
2022-11-16T12:50:48.422Z,22.93
2022-11-16T12:51:48.433Z,23.58
2022-11-16T12:52:48.399Z,23.20